Time,TemperatureF,DewpointF,PressureIn,WindDirection,WindDirectionDegrees,WindSpeedMPH,WindSpeedGustMPH,Humidity,HourlyPrecipIn,Conditions,Clouds,dailyrainin,SoftwareType,DateUTC
2013-04-28 00:02:00,54.2,40.0,30.01,SSW,200,0.0,0.0,59,0.00,,,0.00,weatherlink.com 1.10,2013-04-28 05:02:00,
2013-04-28 00:17:00,54.0,40.0,30.00,SSW,200,0.0,1.0,60,0.00,,,0.00,weatherlink.com 1.10,2013-04-28 05:17:00,
2013-04-28 00:32:00,53.9,41.0,30.00,SSW,200,0.0,1.0,61,0.00,,,0.00,weatherlink.com 1.10,2013-04-28 05:32:00,
2013-04-28 00:47:00,53.7,40.0,30.00,SSW,200,0.0,1.0,61,0.00,,,0.00,weatherlink.com 1.10,2013-04-28 05:47:00,
2013-04-28 01:02:00,53.5,41.0,29.99,SSW,200,0.0,1.0,62,0.00,,,0.00,weatherlink.com 1.10,2013-04-28 06:02:00,
2013-04-28 01:17:00,53.3,41.0,29.99,SSW,200,0.0,1.0,63,0.00,,,0.00,weatherlink.com 1.10,2013-04-28 06:17:00,
2013-04-28 01:32:00,52.9,41.0,29.99,SSW,200,0.0,1.0,64,0.00,,,0.00,weatherlink.com 1.10,2013-04-28 06:32:00,
2013-04-28 01:47:00,52.5,41.0,29.98,SSW,200,0.0,1.0,66,0.00,,,0.00,weatherlink.com 1.10,2013-04-28 06:47:00,
2013-04-28 02:02:00,52.2,41.0,29.97,SSW,200,0.0,1.0,66,0.00,,,0.00,weatherlink.com 1.10,2013-04-28 07:02:00,
2013-04-28 02:17:00,51.8,41.0,29.97,SSW,200,0.0,0.0,67,0.00,,,0.00,weatherlink.com 1.10,2013-04-28 07:17:00,
2013-04-28 02:32:00,51.5,41.0,29.96,SSW,200,0.0,0.0,68,0.00,,,0.00,weatherlink.com 1.10,2013-04-28 07:32:00,
2013-04-28 02:47:00,51.2,41.0,29.96,SSW,200,0.0,1.0,69,0.00,,,0.00,weatherlink.com 1.10,2013-04-28 07:47:00,
2013-04-28 03:02:00,50.8,41.0,29.95,SSW,200,0.0,1.0,69,0.00,,,0.00,weatherlink.com 1.10,2013-04-28 08:02:00,
2013-04-28 03:17:00,50.3,40.0,29.95,SSW,200,0.0,0.0,69,0.00,,,0.00,weatherlink.com 1.10,2013-04-28 08:17:00,
2013-04-28 03:32:00,49.9,41.0,29.95,SSW,200,0.0,1.0,71,0.00,,,0.00,weatherlink.com 1.10,2013-04-28 08:32:00,
2013-04-28 03:47:00,49.9,41.0,29.94,SSW,200,0.0,0.0,72,0.00,,,0.00,weatherlink.com 1.10,2013-04-28 08:47:00,
2013-04-28 04:03:00,49.7,41.0,29.94,SSW,200,0.0,0.0,72,0.00,,,0.00,weatherlink.com 1.10,2013-04-28 09:03:00,
2013-04-28 04:18:00,49.4,41.0,29.94,SSW,200,0.0,0.0,74,0.00,,,0.00,weatherlink.com 1.10,2013-04-28 09:18:00,
2013-04-28 04:33:00,49.4,41.0,29.94,SSW,200,0.0,0.0,74,0.00,,,0.00,weatherlink.com 1.10,2013-04-28 09:33:00,
2013-04-28 04:48:00,48.9,41.0,29.93,SSW,200,0.0,0.0,75,0.00,,,0.00,weatherlink.com 1.10,2013-04-28 09:48:00,
2013-04-28 05:03:00,48.5,41.0,29.93,SSW,200,0.0,0.0,74,0.00,,,0.00,weatherlink.com 1.10,2013-04-28 10:03:00,
2013-04-28 05:18:00,48.6,41.0,29.93,SSW,200,0.0,1.0,74,0.00,,,0.00,weatherlink.com 1.10,2013-04-28 10:18:00,
2013-04-28 05:33:00,48.4,40.0,29.93,SSW,200,0.0,1.0,74,0.00,,,0.00,weatherlink.com 1.10,2013-04-28 10:33:00,
2013-04-28 05:48:00,47.7,40.0,29.93,SSW,200,0.0,2.0,74,0.00,,,0.00,weatherlink.com 1.10,2013-04-28 10:48:00,
2013-04-28 06:03:00,46.9,41.0,29.92,SSW,200,0.0,0.0,79,0.00,,,0.00,weatherlink.com 1.10,2013-04-28 11:03:00,
2013-04-28 06:18:00,46.7,41.0,29.92,SSW,200,0.0,0.0,79,0.00,,,0.00,weatherlink.com 1.10,2013-04-28 11:18:00,
2013-04-28 06:33:00,46.4,41.0,29.92,SSW,200,0.0,0.0,81,0.00,,,0.00,weatherlink.com 1.10,2013-04-28 11:33:00,
2013-04-28 06:48:00,47.0,41.0,29.92,SSW,200,0.0,0.0,79,0.00,,,0.00,weatherlink.com 1.10,2013-04-28 11:48:00,
2013-04-28 07:03:00,47.4,42.0,29.92,SSW,200,0.0,0.0,82,0.00,,,0.00,weatherlink.com 1.10,2013-04-28 12:03:00,
2013-04-28 07:18:00,47.6,42.0,29.93,SW,223,0.0,2.0,82,0.00,,,0.00,weatherlink.com 1.10,2013-04-28 12:18:00,
2013-04-28 07:33:00,49.1,41.0,29.92,NNW,342,0.0,2.0,74,0.00,,,0.00,weatherlink.com 1.10,2013-04-28 12:33:00,
2013-04-28 07:48:00,49.9,42.0,29.92,NNW,342,0.0,1.0,73,0.00,,,0.00,weatherlink.com 1.10,2013-04-28 12:48:00,
2013-04-28 08:03:00,50.5,42.0,29.92,NNW,342,0.0,1.0,72,0.00,,,0.00,weatherlink.com 1.10,2013-04-28 13:03:00,
2013-04-28 08:18:00,51.2,42.0,29.93,NNW,342,0.0,1.0,72,0.00,,,0.00,weatherlink.com 1.10,2013-04-28 13:18:00,
2013-04-28 08:33:00,51.7,42.0,29.93,NNW,329,1.0,3.0,70,0.00,,,0.00,weatherlink.com 1.10,2013-04-28 13:33:00,
2013-04-28 08:48:00,52.1,43.0,29.93,NNW,329,0.0,1.0,71,0.00,,,0.00,weatherlink.com 1.10,2013-04-28 13:48:00,
2013-04-28 09:03:00,52.3,43.0,29.92,NNW,329,0.0,3.0,70,0.00,,,0.00,weatherlink.com 1.10,2013-04-28 14:03:00,
2013-04-28 09:18:00,52.5,42.0,29.93,NNW,329,0.0,2.0,68,0.00,,,0.00,weatherlink.com 1.10,2013-04-28 14:18:00,
2013-04-28 09:33:00,52.8,42.0,29.93,NNW,329,2.0,3.0,68,0.00,,,0.00,weatherlink.com 1.10,2013-04-28 14:33:00,
2013-04-28 09:48:00,53.0,43.0,29.92,NNW,327,1.0,3.0,68,0.00,,,0.00,weatherlink.com 1.10,2013-04-28 14:48:00,
2013-04-28 10:03:00,53.3,43.0,29.91,NNW,327,0.0,3.0,68,0.00,,,0.00,weatherlink.com 1.10,2013-04-28 15:03:00,
2013-04-28 10:18:00,53.9,43.0,29.91,NNW,327,0.0,3.0,68,0.00,,,0.00,weatherlink.com 1.10,2013-04-28 15:18:00,
2013-04-28 10:33:00,54.9,44.0,29.91,NNW,327,0.0,2.0,66,0.00,,,0.00,weatherlink.com 1.10,2013-04-28 15:33:00,
2013-04-28 10:48:00,56.1,44.0,29.90,NNW,329,0.0,2.0,64,0.00,,,0.00,weatherlink.com 1.10,2013-04-28 15:48:00,
2013-04-28 11:03:00,57.1,44.0,29.90,NNW,330,0.0,1.0,61,0.00,,,0.00,weatherlink.com 1.10,2013-04-28 16:03:00,
2013-04-28 11:18:00,58.0,44.0,29.90,NNW,330,0.0,2.0,59,0.00,,,0.00,weatherlink.com 1.10,2013-04-28 16:18:00,
2013-04-28 11:33:00,59.3,44.0,29.90,NNW,342,0.0,2.0,57,0.00,,,0.00,weatherlink.com 1.10,2013-04-28 16:33:00,
2013-04-28 11:48:00,60.2,44.0,29.89,NNE,30,1.0,4.0,55,0.00,,,0.00,weatherlink.com 1.10,2013-04-28 16:48:00,
2013-04-28 12:03:00,61.1,44.0,29.88,NNE,26,2.0,3.0,54,0.00,,,0.00,weatherlink.com 1.10,2013-04-28 17:03:00,
2013-04-28 12:18:00,63.4,46.0,29.88,NE,36,1.0,2.0,53,0.00,,,0.00,weatherlink.com 1.10,2013-04-28 17:18:00,
2013-04-28 12:34:00,64.7,45.0,29.87,WNW,294,2.0,3.0,49,0.00,,,0.00,weatherlink.com 1.10,2013-04-28 17:34:00,
2013-04-28 12:49:00,66.2,43.0,29.86,SW,214,0.0,3.0,44,0.00,,,0.00,weatherlink.com 1.10,2013-04-28 17:49:00,
2013-04-28 13:04:00,67.7,45.0,29.86,NW,325,0.0,4.0,44,0.00,,,0.00,weatherlink.com 1.10,2013-04-28 18:04:00,
2013-04-28 13:19:00,67.7,45.0,29.86,NW,317,0.0,4.0,45,0.00,,,0.00,weatherlink.com 1.10,2013-04-28 18:19:00,
2013-04-28 13:34:00,65.8,44.0,29.85,SE,143,3.0,4.0,46,0.00,,,0.00,weatherlink.com 1.10,2013-04-28 18:34:00,
2013-04-28 13:49:00,66.6,44.0,29.85,North,360,1.0,5.0,45,0.00,,,0.00,weatherlink.com 1.10,2013-04-28 18:49:00,
2013-04-28 14:04:00,67.4,46.0,29.85,NNW,341,1.0,4.0,46,0.00,,,0.00,weatherlink.com 1.10,2013-04-28 19:04:00,
2013-04-28 14:19:00,67.8,45.0,29.84,SW,214,1.0,5.0,44,0.00,,,0.00,weatherlink.com 1.10,2013-04-28 19:19:00,
2013-04-28 14:34:00,68.3,45.0,29.83,SW,217,5.0,5.0,44,0.00,,,0.00,weatherlink.com 1.10,2013-04-28 19:34:00,
2013-04-28 14:49:00,68.4,46.0,29.83,North,355,0.0,5.0,44,0.00,,,0.00,weatherlink.com 1.10,2013-04-28 19:49:00,
2013-04-28 15:04:00,68.3,45.0,29.82,SE,145,1.0,4.0,43,0.00,,,0.00,weatherlink.com 1.10,2013-04-28 20:04:00,
2013-04-28 15:19:00,69.3,46.0,29.82,South,171,3.0,6.0,43,0.00,,,0.00,weatherlink.com 1.10,2013-04-28 20:19:00,
2013-04-28 15:34:00,70.2,46.0,29.82,West,262,0.0,3.0,42,0.00,,,0.00,weatherlink.com 1.10,2013-04-28 20:34:00,
2013-04-28 15:49:00,70.6,46.0,29.81,SSW,211,1.0,4.0,41,0.00,,,0.00,weatherlink.com 1.10,2013-04-28 20:49:00,
2013-04-28 16:04:00,70.2,47.0,29.81,East,94,0.0,3.0,43,0.00,,,0.00,weatherlink.com 1.10,2013-04-28 21:04:00,
2013-04-28 16:19:00,70.4,46.0,29.81,SSW,196,3.0,5.0,42,0.00,,,0.00,weatherlink.com 1.10,2013-04-28 21:19:00,
2013-04-28 16:34:00,68.5,46.0,29.80,NE,48,0.0,5.0,44,0.00,,,0.00,weatherlink.com 1.10,2013-04-28 21:34:00,
2013-04-28 16:49:00,69.2,46.0,29.80,ENE,67,1.0,3.0,43,0.00,,,0.00,weatherlink.com 1.10,2013-04-28 21:49:00,
2013-04-28 17:04:00,69.7,46.0,29.80,South,170,1.0,3.0,43,0.00,,,0.00,weatherlink.com 1.10,2013-04-28 22:04:00,
2013-04-28 17:19:00,70.4,45.0,29.80,SSE,153,2.0,3.0,41,0.00,,,0.00,weatherlink.com 1.10,2013-04-28 22:19:00,
2013-04-28 17:34:00,69.8,48.0,29.80,ENE,76,2.0,4.0,46,0.00,,,0.00,weatherlink.com 1.10,2013-04-28 22:34:00,
2013-04-28 17:49:00,67.2,47.0,29.80,SE,142,0.0,5.0,49,0.00,,,0.00,weatherlink.com 1.10,2013-04-28 22:49:00,
2013-04-28 18:04:00,66.1,48.0,29.80,SSE,158,0.0,3.0,52,0.00,,,0.00,weatherlink.com 1.10,2013-04-28 23:04:00,
2013-04-28 18:19:00,65.2,47.0,29.80,ENE,68,1.0,3.0,53,0.00,,,0.00,weatherlink.com 1.10,2013-04-28 23:19:00,
2013-04-28 18:34:00,64.5,48.0,29.79,SE,137,2.0,2.0,55,0.00,,,0.00,weatherlink.com 1.10,2013-04-28 23:34:00,
2013-04-28 18:49:00,63.3,48.0,29.80,NE,56,0.0,3.0,57,0.00,,,0.00,weatherlink.com 1.10,2013-04-28 23:49:00,
2013-04-28 19:04:00,62.3,48.0,29.80,East,82,0.0,2.0,59,0.00,,,0.00,weatherlink.com 1.10,2013-04-29 00:04:00,
2013-04-28 19:19:00,61.4,48.0,29.80,East,96,1.0,3.0,61,0.00,,,0.00,weatherlink.com 1.10,2013-04-29 00:19:00,
2013-04-28 19:34:00,60.5,48.0,29.81,East,99,0.0,1.0,63,0.00,,,0.00,weatherlink.com 1.10,2013-04-29 00:34:00,
2013-04-28 19:49:00,59.5,48.0,29.81,East,100,0.0,1.0,65,0.00,,,0.00,weatherlink.com 1.10,2013-04-29 00:49:00,
2013-04-28 20:04:00,58.9,48.0,29.81,East,100,0.0,1.0,67,0.00,,,0.00,weatherlink.com 1.10,2013-04-29 01:04:00,
2013-04-28 20:19:00,58.2,48.0,29.82,East,100,0.0,2.0,68,0.00,,,0.00,weatherlink.com 1.10,2013-04-29 01:19:00,
2013-04-28 20:34:00,57.7,48.0,29.82,East,100,0.0,2.0,70,0.00,,,0.00,weatherlink.com 1.10,2013-04-29 01:34:00,
2013-04-28 20:49:00,57.2,48.0,29.82,East,100,0.0,1.0,72,0.00,,,0.00,weatherlink.com 1.10,2013-04-29 01:49:00,
2013-04-28 21:04:00,56.7,49.0,29.83,East,100,0.0,1.0,74,0.00,,,0.00,weatherlink.com 1.10,2013-04-29 02:04:00,
2013-04-28 21:19:00,56.2,49.0,29.83,SE,134,0.0,2.0,77,0.00,,,0.00,weatherlink.com 1.10,2013-04-29 02:19:00,
2013-04-28 21:34:00,55.7,49.0,29.83,SE,134,0.0,1.0,79,0.00,,,0.00,weatherlink.com 1.10,2013-04-29 02:34:00,
2013-04-28 21:49:00,55.3,50.0,29.83,SE,134,0.0,2.0,81,0.00,,,0.00,weatherlink.com 1.10,2013-04-29 02:49:00,
2013-04-28 22:04:00,54.9,50.0,29.83,SE,134,0.0,1.0,82,0.00,,,0.00,weatherlink.com 1.10,2013-04-29 03:04:00,
2013-04-28 22:19:00,54.4,49.0,29.83,SE,134,0.0,1.0,83,0.00,,,0.00,weatherlink.com 1.10,2013-04-29 03:19:00,
2013-04-28 22:34:00,54.0,50.0,29.83,SE,134,0.0,2.0,85,0.00,,,0.00,weatherlink.com 1.10,2013-04-29 03:34:00,
2013-04-28 22:49:00,53.5,50.0,29.83,SE,134,0.0,1.0,86,0.00,,,0.00,weatherlink.com 1.10,2013-04-29 03:49:00,
2013-04-28 23:04:00,53.3,50.0,29.83,SE,134,0.0,1.0,87,0.00,,,0.00,weatherlink.com 1.10,2013-04-29 04:04:00,
2013-04-28 23:19:00,52.9,49.0,29.83,SE,134,0.0,1.0,87,0.00,,,0.00,weatherlink.com 1.10,2013-04-29 04:19:00,
2013-04-28 23:34:00,52.6,49.0,29.83,SE,134,0.0,0.0,88,0.00,,,0.00,weatherlink.com 1.10,2013-04-29 04:34:00,
2013-04-28 23:49:00,52.2,49.0,29.83,SE,134,0.0,0.0,88,0.00,,,0.00,weatherlink.com 1.10,2013-04-29 04:49:00,